sensor_id;sensor_type;location;lat;lon;timestamp;pressure;altitude;pressure_sealevel;temperature;humidity
28935;BME280;16044;52.726;-2.108;2023-04-02T00:00:36;101056.78;;;8.06;97.85
28935;BME280;16044;52.726;-2.108;2023-04-02T00:08:56;101072.00;;;8.07;97.76
28935;BME280;16044;52.726;-2.108;2023-04-02T00:11:38;101064.59;;;7.99;97.57
28935;BME280;16044;52.726;-2.108;2023-04-02T00:16:42;101072.84;;;8.08;97.59
28935;BME280;16044;52.726;-2.108;2023-04-02T00:19:29;101068.56;;;8.05;97.68
28935;BME280;16044;52.726;-2.108;2023-04-02T00:21:58;101072.84;;;8.08;97.51
28935;BME280;16044;52.726;-2.108;2023-04-02T00:24:27;101075.53;;;8.08;97.76
28935;BME280;16044;52.726;-2.108;2023-04-02T00:26:54;101083.63;;;8.08;97.68
28935;BME280;16044;52.726;-2.108;2023-04-02T00:29:21;101089.03;;;8.08;97.89
28935;BME280;16044;52.726;-2.108;2023-04-02T00:31:52;101094.44;;;8.08;98.00
28935;BME280;16044;52.726;-2.108;2023-04-02T00:34:40;101087.91;;;8.00;98.27
28935;BME280;16044;52.726;-2.108;2023-04-02T00:37:15;101092.34;;;8.02;98.21
28935;BME280;16044;52.726;-2.108;2023-04-02T00:40:05;101091.47;;;8.01;98.08
28935;BME280;16044;52.726;-2.108;2023-04-02T00:42:37;101102.13;;;8.03;97.96
28935;BME280;16044;52.726;-2.108;2023-04-02T00:45:23;101110.34;;;8.01;97.86
28935;BME280;16044;52.726;-2.108;2023-04-02T00:47:51;101117.47;;;8.02;98.00
28935;BME280;16044;52.726;-2.108;2023-04-02T00:50:40;101121.47;;;7.98;97.89
28935;BME280;16044;52.726;-2.108;2023-04-02T00:53:14;101121.72;;;8.05;97.64
28935;BME280;16044;52.726;-2.108;2023-04-02T00:55:47;101129.97;;;8.03;97.77
28935;BME280;16044;52.726;-2.108;2023-04-02T00:58:31;101133.69;;;7.92;98.19
28935;BME280;16044;52.726;-2.108;2023-04-02T01:01:00;101134.66;;;7.91;97.88
28935;BME280;16044;52.726;-2.108;2023-04-02T01:03:30;101124.88;;;8.00;97.41
28935;BME280;16044;52.726;-2.108;2023-04-02T01:06:12;101137.78;;;7.96;97.55
28935;BME280;16044;52.726;-2.108;2023-04-02T01:11:35;101136.78;;;7.97;97.43
28935;BME280;16044;52.726;-2.108;2023-04-02T01:23:06;101138.50;;;7.89;97.59
28935;BME280;16044;52.726;-2.108;2023-04-02T01:28:25;101151.31;;;7.87;97.19
28935;BME280;16044;52.726;-2.108;2023-04-02T01:31:00;101149.59;;;7.86;97.77
28935;BME280;16044;52.726;-2.108;2023-04-02T01:33:31;101167.06;;;7.91;97.38
28935;BME280;16044;52.726;-2.108;2023-04-02T01:45:14;101161.81;;;7.80;97.11
28935;BME280;16044;52.726;-2.108;2023-04-02T01:47:43;101160.81;;;7.81;97.05
28935;BME280;16044;52.726;-2.108;2023-04-02T01:50:32;101165.09;;;7.74;96.90
28935;BME280;16044;52.726;-2.108;2023-04-02T01:53:07;101169.91;;;7.80;97.11
28935;BME280;16044;52.726;-2.108;2023-04-02T01:55:47;101169.19;;;7.78;96.78
28935;BME280;16044;52.726;-2.108;2023-04-02T01:58:19;101180.13;;;7.76;96.76
28935;BME280;16044;52.726;-2.108;2023-04-02T02:00:56;101178.56;;;7.74;96.76
28935;BME280;16044;52.726;-2.108;2023-04-02T02:03:33;101182.13;;;7.74;96.99
28935;BME280;16044;52.726;-2.108;2023-04-02T02:06:01;101183.69;;;7.77;96.79
28935;BME280;16044;52.726;-2.108;2023-04-02T02:11:09;101189.38;;;7.74;96.93
28935;BME280;16044;52.726;-2.108;2023-04-02T02:13:39;101195.34;;;7.68;97.04
28935;BME280;16044;52.726;-2.108;2023-04-02T02:16:12;101190.22;;;7.65;97.02
28935;BME280;16044;52.726;-2.108;2023-04-02T02:18:49;101197.03;;;7.69;96.89
28935;BME280;16044;52.726;-2.108;2023-04-02T02:21:44;101199.00;;;7.67;96.37
28935;BME280;16044;52.726;-2.108;2023-04-02T02:24:20;101199.00;;;7.67;96.46
28935;BME280;16044;52.726;-2.108;2023-04-02T02:29:59;101210.06;;;7.64;96.58
28935;BME280;16044;52.726;-2.108;2023-04-02T02:32:30;101214.22;;;7.68;96.57
28935;BME280;16044;52.726;-2.108;2023-04-02T02:35:28;101221.16;;;7.60;96.48
28935;BME280;16044;52.726;-2.108;2023-04-02T02:41:00;101228.97;;;7.64;96.79
28935;BME280;16044;52.726;-2.108;2023-04-02T02:43:33;101236.06;;;7.65;96.42
28935;BME280;16044;52.726;-2.108;2023-04-02T02:46:03;101235.81;;;7.68;96.29
28935;BME280;16044;52.726;-2.108;2023-04-02T02:48:35;101240.50;;;7.66;96.43
28935;BME280;16044;52.726;-2.108;2023-04-02T02:51:12;101239.91;;;7.62;96.52
28935;BME280;16044;52.726;-2.108;2023-04-02T02:53:49;101246.16;;;7.63;96.24
28935;BME280;16044;52.726;-2.108;2023-04-02T02:56:21;101241.47;;;7.65;96.17
28935;BME280;16044;52.726;-2.108;2023-04-02T02:58:51;101248.84;;;7.63;95.91
28935;BME280;16044;52.726;-2.108;2023-04-02T03:01:19;101251.81;;;7.59;95.99
28935;BME280;16044;52.726;-2.108;2023-04-02T03:03:47;101257.22;;;7.59;96.15
28935;BME280;16044;52.726;-2.108;2023-04-02T03:06:19;101253.25;;;7.64;96.09
28935;BME280;16044;52.726;-2.108;2023-04-02T03:14:48;101275.00;;;7.62;96.48
28935;BME280;16044;52.726;-2.108;2023-04-02T03:17:30;101276.97;;;7.60;96.62
28935;BME280;16044;52.726;-2.108;2023-04-02T03:20:11;101279.94;;;7.57;96.67
28935;BME280;16044;52.726;-2.108;2023-04-02T03:23:01;101277.63;;;7.52;97.22
28935;BME280;16044;52.726;-2.108;2023-04-02T03:28:03;101291.56;;;7.57;96.84
28935;BME280;16044;52.726;-2.108;2023-04-02T03:33:20;101294.28;;;7.57;97.07
28935;BME280;16044;52.726;-2.108;2023-04-02T03:35:55;101299.50;;;7.49;97.47
28935;BME280;16044;52.726;-2.108;2023-04-02T03:38:29;101314.16;;;7.56;97.20
28935;BME280;16044;52.726;-2.108;2023-04-02T03:44:45;101309.75;;;7.55;97.75
28935;BME280;16044;52.726;-2.108;2023-04-02T03:47:28;101315.72;;;7.59;97.31
28935;BME280;16044;52.726;-2.108;2023-04-02T03:50:04;101328.91;;;7.52;98.02
28935;BME280;16044;52.726;-2.108;2023-04-02T03:52:35;101329.63;;;7.54;97.85
28935;BME280;16044;52.726;-2.108;2023-04-02T03:55:12;101331.03;;;7.49;98.58
28935;BME280;16044;52.726;-2.108;2023-04-02T03:58:07;101335.28;;;7.51;97.96
28935;BME280;16044;52.726;-2.108;2023-04-02T04:00:43;101332.47;;;7.53;98.44
28935;BME280;16044;52.726;-2.108;2023-04-02T04:03:21;101334.03;;;7.55;97.72
28935;BME280;16044;52.726;-2.108;2023-04-02T04:06:00;101336.44;;;7.49;98.13
28935;BME280;16044;52.726;-2.108;2023-04-02T04:08:35;101339.81;;;7.41;98.73
28935;BME280;16044;52.726;-2.108;2023-04-02T04:11:13;101337.16;;;7.51;98.12
28935;BME280;16044;52.726;-2.108;2023-04-02T04:13:50;101339.97;;;7.49;98.17
28935;BME280;16044;52.726;-2.108;2023-04-02T04:16:28;101342.66;;;7.49;98.21
28935;BME280;16044;52.726;-2.108;2023-04-02T04:19:04;101344.53;;;7.49;98.38
28935;BME280;16044;52.726;-2.108;2023-04-02T04:21:36;101348.06;;;7.49;98.13
28935;BME280;16044;52.726;-2.108;2023-04-02T04:24:05;101351.75;;;7.48;98.25
28935;BME280;16044;52.726;-2.108;2023-04-02T04:26:52;101349.59;;;7.42;98.32
28935;BME280;16044;52.726;-2.108;2023-04-02T04:29:44;101348.00;;;7.30;99.51
28935;BME280;16044;52.726;-2.108;2023-04-02T04:32:33;101354.28;;;7.40;98.95
28935;BME280;16044;52.726;-2.108;2023-04-02T04:35:06;101350.31;;;7.44;98.69
28935;BME280;16044;52.726;-2.108;2023-04-02T04:37:44;101359.41;;;7.43;99.16
28935;BME280;16044;52.726;-2.108;2023-04-02T04:40:19;101356.97;;;7.40;98.82
28935;BME280;16044;52.726;-2.108;2023-04-02T04:42:53;101356.56;;;7.45;99.16
28935;BME280;16044;52.726;-2.108;2023-04-02T04:48:15;101367.28;;;7.35;99.56
28935;BME280;16044;52.726;-2.108;2023-04-02T04:50:53;101384.91;;;7.39;99.35
28935;BME280;16044;52.726;-2.108;2023-04-02T04:53:27;101379.53;;;7.39;99.53
28935;BME280;16044;52.726;-2.108;2023-04-02T04:55:56;101381.50;;;7.37;99.49
28935;BME280;16044;52.726;-2.108;2023-04-02T04:59:26;101388.75;;;7.36;99.33
28935;BME280;16044;52.726;-2.108;2023-04-02T05:02:17;101399.94;;;7.32;99.92
28935;BME280;16044;52.726;-2.108;2023-04-02T05:04:50;101402.66;;;7.32;99.80
28935;BME280;16044;52.726;-2.108;2023-04-02T05:07:26;101410.75;;;7.32;99.76
28935;BME280;16044;52.726;-2.108;2023-04-02T05:10:13;101407.88;;;7.33;99.74
28935;BME280;16044;52.726;-2.108;2023-04-02T05:12:58;101417.81;;;7.33;99.57
28935;BME280;16044;52.726;-2.108;2023-04-02T05:15:42;101423.22;;;7.33;99.84
28935;BME280;16044;52.726;-2.108;2023-04-02T05:18:25;101427.75;;;7.32;99.98
28935;BME280;16044;52.726;-2.108;2023-04-02T05:21:04;101428.34;;;7.36;99.73
28935;BME280;16044;52.726;-2.108;2023-04-02T05:23:53;101427.16;;;7.29;99.51
28935;BME280;16044;52.726;-2.108;2023-04-02T05:26:30;101433.16;;;7.32;99.54
28935;BME280;16044;52.726;-2.108;2023-04-02T05:29:05;101431.00;;;7.26;100.00
28935;BME280;16044;52.726;-2.108;2023-04-02T05:31:44;101431.72;;;7.28;99.82
28935;BME280;16044;52.726;-2.108;2023-04-02T05:34:32;101436.09;;;7.29;99.82
28935;BME280;16044;52.726;-2.108;2023-04-02T05:37:11;101439.28;;;7.34;99.83
28935;BME280;16044;52.726;-2.108;2023-04-02T05:39:44;101442.09;;;7.33;99.93
28935;BME280;16044;52.726;-2.108;2023-04-02T05:42:21;101442.09;;;7.33;99.71
28935;BME280;16044;52.726;-2.108;2023-04-02T05:47:49;101454.31;;;7.37;99.61
28935;BME280;16044;52.726;-2.108;2023-04-02T05:50:34;101458.88;;;7.36;99.52
28935;BME280;16044;52.726;-2.108;2023-04-02T05:53:10;101462.28;;;7.38;99.62
28935;BME280;16044;52.726;-2.108;2023-04-02T06:01:38;101466.84;;;7.38;99.73
28935;BME280;16044;52.726;-2.108;2023-04-02T06:04:43;101471.63;;;7.34;99.63
28935;BME280;16044;52.726;-2.108;2023-04-02T06:07:26;101471.75;;;7.33;99.37
28935;BME280;16044;52.726;-2.108;2023-04-02T06:10:11;101482.84;;;7.30;99.52
28935;BME280;16044;52.726;-2.108;2023-04-02T06:13:27;101485.97;;;7.35;99.76
28935;BME280;16044;52.726;-2.108;2023-04-02T06:15:37;101491.34;;;7.35;99.66
28935;BME280;16044;52.726;-2.108;2023-04-02T06:18:07;101495.06;;;7.34;99.85
28935;BME280;16044;52.726;-2.108;2023-04-02T06:20:39;101500.16;;;7.37;99.48
28935;BME280;16044;52.726;-2.108;2023-04-02T06:23:14;101512.09;;;7.34;99.65
28935;BME280;16044;52.726;-2.108;2023-04-02T06:25:56;101511.69;;;7.39;99.32
28935;BME280;16044;52.726;-2.108;2023-04-02T06:28:30;101515.75;;;7.33;99.52
28935;BME280;16044;52.726;-2.108;2023-04-02T06:31:10;101503.88;;;7.36;99.48
28935;BME280;16044;52.726;-2.108;2023-04-02T06:33:47;101534.50;;;7.35;100.00
28935;BME280;16044;52.726;-2.108;2023-04-02T06:36:18;101539.72;;;7.27;100.00
28935;BME280;16044;52.726;-2.108;2023-04-02T06:38:47;101540.47;;;7.17;100.00
28935;BME280;16044;52.726;-2.108;2023-04-02T06:41:23;101549.09;;;7.11;100.00
28935;BME280;16044;52.726;-2.108;2023-04-02T06:44:03;101556.38;;;6.99;100.00
28935;BME280;16044;52.726;-2.108;2023-04-02T06:46:36;101567.03;;;6.90;100.00
28935;BME280;16044;52.726;-2.108;2023-04-02T06:52:28;101587.66;;;6.68;100.00
28935;BME280;16044;52.726;-2.108;2023-04-02T06:55:05;101589.97;;;6.61;100.00
28935;BME280;16044;52.726;-2.108;2023-04-02T06:57:46;101600.41;;;6.55;100.00
28935;BME280;16044;52.726;-2.108;2023-04-02T07:00:41;101601.53;;;6.52;100.00
28935;BME280;16044;52.726;-2.108;2023-04-02T07:03:22;101601.63;;;6.39;100.00
28935;BME280;16044;52.726;-2.108;2023-04-02T07:05:51;101601.75;;;6.49;100.00
28935;BME280;16044;52.726;-2.108;2023-04-02T07:08:19;101603.94;;;6.55;100.00
28935;BME280;16044;52.726;-2.108;2023-04-02T07:10:46;101604.06;;;6.54;100.00
28935;BME280;16044;52.726;-2.108;2023-04-02T07:13:15;101605.91;;;6.53;100.00
28935;BME280;16044;52.726;-2.108;2023-04-02T07:15:46;101613.50;;;6.48;100.00
28935;BME280;16044;52.726;-2.108;2023-04-02T07:18:31;101613.88;;;6.43;100.00
28935;BME280;16044;52.726;-2.108;2023-04-02T07:20:59;101610.06;;;6.35;100.00
28935;BME280;16044;52.726;-2.108;2023-04-02T07:23:26;101619.13;;;6.34;100.00
28935;BME280;16044;52.726;-2.108;2023-04-02T07:25:54;101625.38;;;6.34;100.00
28935;BME280;16044;52.726;-2.108;2023-04-02T07:28:23;101624.75;;;6.31;100.00
28935;BME280;16044;52.726;-2.108;2023-04-02T07:30:51;101634.69;;;6.30;100.00
28935;BME280;16044;52.726;-2.108;2023-04-02T07:33:21;101633.69;;;6.31;100.00
28935;BME280;16044;52.726;-2.108;2023-04-02T07:35:52;101636.38;;;6.31;100.00
28935;BME280;16044;52.726;-2.108;2023-04-02T07:38:20;101640.41;;;6.37;100.00
28935;BME280;16044;52.726;-2.108;2023-04-02T07:40:47;101654.63;;;6.39;100.00
28935;BME280;16044;52.726;-2.108;2023-04-02T07:43:14;101653.28;;;6.44;100.00
28935;BME280;16044;52.726;-2.108;2023-04-02T07:45:41;101665.28;;;6.52;100.00
28935;BME280;16044;52.726;-2.108;2023-04-02T07:48:11;101670.44;;;6.55;100.00
28935;BME280;16044;52.726;-2.108;2023-04-02T07:50:39;101670.22;;;6.58;100.00
28935;BME280;16044;52.726;-2.108;2023-04-02T07:53:06;101683.19;;;6.64;100.00
28935;BME280;16044;52.726;-2.108;2023-04-02T07:55:34;101669.94;;;6.61;100.00
28935;BME280;16044;52.726;-2.108;2023-04-02T07:58:02;101667.53;;;6.69;100.00
28935;BME280;16044;52.726;-2.108;2023-04-02T08:00:29;101684.66;;;6.68;100.00
28935;BME280;16044;52.726;-2.108;2023-04-02T08:02:56;101683.41;;;6.72;100.00
28935;BME280;16044;52.726;-2.108;2023-04-02T08:05:24;101689.19;;;6.79;100.00
28935;BME280;16044;52.726;-2.108;2023-04-02T08:07:53;101694.94;;;6.86;100.00
28935;BME280;16044;52.726;-2.108;2023-04-02T08:10:22;101692.97;;;6.88;99.21
28935;BME280;16044;52.726;-2.108;2023-04-02T08:12:49;101690.53;;;6.96;99.03
28935;BME280;16044;52.726;-2.108;2023-04-02T08:15:17;101692.97;;;6.99;98.07
28935;BME280;16044;52.726;-2.108;2023-04-02T08:17:44;101681.72;;;7.05;96.83
28935;BME280;16044;52.726;-2.108;2023-04-02T08:20:16;101684.75;;;7.12;97.05
28935;BME280;16044;52.726;-2.108;2023-04-02T08:22:45;101686.59;;;7.22;96.37
28935;BME280;16044;52.726;-2.108;2023-04-02T08:25:12;101688.00;;;7.38;95.86
28935;BME280;16044;52.726;-2.108;2023-04-02T08:27:40;101697.41;;;7.55;94.74
28935;BME280;16044;52.726;-2.108;2023-04-02T08:30:11;101708.03;;;7.68;92.35
28935;BME280;16044;52.726;-2.108;2023-04-02T08:32:38;101707.13;;;7.78;91.42
28935;BME280;16044;52.726;-2.108;2023-04-02T08:35:10;101702.28;;;7.93;91.40
28935;BME280;16044;52.726;-2.108;2023-04-02T08:37:39;101712.06;;;8.06;89.37
28935;BME280;16044;52.726;-2.108;2023-04-02T08:48:46;101720.53;;;8.22;87.67
28935;BME280;16044;52.726;-2.108;2023-04-02T08:51:25;101720.09;;;8.17;85.83
28935;BME280;16044;52.726;-2.108;2023-04-02T08:53:58;101722.81;;;8.17;85.90
28935;BME280;16044;52.726;-2.108;2023-04-02T08:56:38;101725.50;;;8.17;86.08
28935;BME280;16044;52.726;-2.108;2023-04-02T08:59:29;101733.28;;;8.31;86.72
28935;BME280;16044;52.726;-2.108;2023-04-02T09:05:04;101752.78;;;8.35;86.42
28935;BME280;16044;52.726;-2.108;2023-04-02T09:07:33;101753.75;;;8.45;86.51
28935;BME280;16044;52.726;-2.108;2023-04-02T09:10:01;101756.16;;;8.48;85.50
28935;BME280;16044;52.726;-2.108;2023-04-02T09:12:30;101757.06;;;8.49;84.82
28935;BME280;16044;52.726;-2.108;2023-04-02T09:17:54;101770.22;;;8.42;81.95
28935;BME280;16044;52.726;-2.108;2023-04-02T09:20:25;101773.13;;;8.39;81.27
28935;BME280;16044;52.726;-2.108;2023-04-02T09:22:54;101768.72;;;8.38;80.74
28935;BME280;16044;52.726;-2.108;2023-04-02T09:25:27;101776.00;;;8.37;80.75
28935;BME280;16044;52.726;-2.108;2023-04-02T09:28:03;101772.41;;;8.37;80.27
28935;BME280;16044;52.726;-2.108;2023-04-02T09:30:36;101775.22;;;8.47;80.73
28935;BME280;16044;52.726;-2.108;2023-04-02T09:33:17;101789.06;;;8.53;78.67
28935;BME280;16044;52.726;-2.108;2023-04-02T09:38:20;101795.13;;;8.46;78.55
28935;BME280;16044;52.726;-2.108;2023-04-02T09:41:00;101796.25;;;8.43;79.08
28935;BME280;16044;52.726;-2.108;2023-04-02T09:43:37;101797.72;;;8.47;78.73
28935;BME280;16044;52.726;-2.108;2023-04-02T09:46:21;101797.06;;;8.55;78.58
28935;BME280;16044;52.726;-2.108;2023-04-02T09:48:54;101809.56;;;8.56;77.81
28935;BME280;16044;52.726;-2.108;2023-04-02T09:51:26;101800.06;;;8.62;77.51
28935;BME280;16044;52.726;-2.108;2023-04-02T09:56:36;101811.63;;;8.85;75.05
28935;BME280;16044;52.726;-2.108;2023-04-02T10:01:40;101815.44;;;8.82;75.63
28935;BME280;16044;52.726;-2.108;2023-04-02T10:07:02;101823.59;;;8.92;75.06
28935;BME280;16044;52.726;-2.108;2023-04-02T10:09:34;101826.75;;;8.97;74.96
28935;BME280;16044;52.726;-2.108;2023-04-02T10:12:09;101829.66;;;9.05;74.75
28935;BME280;16044;52.726;-2.108;2023-04-02T10:14:44;101835.34;;;9.02;73.50
28935;BME280;16044;52.726;-2.108;2023-04-02T10:17:23;101839.31;;;8.98;72.98
28935;BME280;16044;52.726;-2.108;2023-04-02T10:20:02;101836.00;;;8.94;73.36
28935;BME280;16044;52.726;-2.108;2023-04-02T10:22:32;101837.34;;;9.00;73.61
28935;BME280;16044;52.726;-2.108;2023-04-02T10:24:59;101841.59;;;9.03;74.23
28935;BME280;16044;52.726;-2.108;2023-04-02T10:27:38;101846.47;;;9.09;74.27
28935;BME280;16044;52.726;-2.108;2023-04-02T10:30:22;101858.16;;;9.09;73.64
28935;BME280;16044;52.726;-2.108;2023-04-02T10:32:58;101855.53;;;8.98;74.05
28935;BME280;16044;52.726;-2.108;2023-04-02T10:35:51;101868.53;;;9.04;73.32
28935;BME280;16044;52.726;-2.108;2023-04-02T10:41:21;101870.03;;;8.97;74.03
28935;BME280;16044;52.726;-2.108;2023-04-02T10:52:34;101899.72;;;9.08;74.62
28935;BME280;16044;52.726;-2.108;2023-04-02T10:55:27;101891.34;;;9.11;74.24
28935;BME280;16044;52.726;-2.108;2023-04-02T10:57:59;101895.09;;;9.20;73.49
28935;BME280;16044;52.726;-2.108;2023-04-02T11:00:34;101903.41;;;9.28;73.56
28935;BME280;16044;52.726;-2.108;2023-04-02T11:03:09;101904.44;;;9.37;72.81
28935;BME280;16044;52.726;-2.108;2023-04-02T11:05:48;101909.06;;;9.46;72.87
28935;BME280;16044;52.726;-2.108;2023-04-02T11:11:02;101923.16;;;9.50;70.63
28935;BME280;16044;52.726;-2.108;2023-04-02T11:13:51;101921.88;;;9.44;69.88
28935;BME280;16044;52.726;-2.108;2023-04-02T11:16:22;101919.34;;;9.52;69.67
28935;BME280;16044;52.726;-2.108;2023-04-02T11:21:56;101911.75;;;9.77;66.62
28935;BME280;16044;52.726;-2.108;2023-04-02T11:32:37;101909.88;;;10.18;64.32
28935;BME280;16044;52.726;-2.108;2023-04-02T11:38:01;101915.09;;;10.31;64.72
28935;BME280;16044;52.726;-2.108;2023-04-02T11:49:31;101931.09;;;10.73;61.55
28935;BME280;16044;52.726;-2.108;2023-04-02T11:52:00;101930.81;;;10.86;62.15
28935;BME280;16044;52.726;-2.108;2023-04-02T11:54:37;101934.81;;;10.82;61.73
28935;BME280;16044;52.726;-2.108;2023-04-02T11:57:19;101934.81;;;10.82;60.96
28935;BME280;16044;52.726;-2.108;2023-04-02T12:06:01;101937.66;;;10.70;60.08
28935;BME280;16044;52.726;-2.108;2023-04-02T12:08:39;101935.66;;;10.72;61.19
28935;BME280;16044;52.726;-2.108;2023-04-02T12:11:33;101937.94;;;10.67;60.65
28935;BME280;16044;52.726;-2.108;2023-04-02T12:14:31;101946.06;;;10.58;59.41
28935;BME280;16044;52.726;-2.108;2023-04-02T12:17:16;101930.38;;;10.42;59.60
28935;BME280;16044;52.726;-2.108;2023-04-02T12:19:49;101933.66;;;10.45;59.46
28935;BME280;16044;52.726;-2.108;2023-04-02T12:22:25;101929.09;;;10.56;60.15
28935;BME280;16044;52.726;-2.108;2023-04-02T12:25:03;101944.38;;;10.76;60.23
28935;BME280;16044;52.726;-2.108;2023-04-02T12:27:31;101937.22;;;10.85;58.29
28935;BME280;16044;52.726;-2.108;2023-04-02T12:32:48;101941.81;;;10.84;58.42
28935;BME280;16044;52.726;-2.108;2023-04-02T12:35:28;101946.22;;;10.56;57.51
28935;BME280;16044;52.726;-2.108;2023-04-02T12:37:58;101948.34;;;10.62;57.98
28935;BME280;16044;52.726;-2.108;2023-04-02T12:40:26;101936.97;;;10.68;56.81
28935;BME280;16044;52.726;-2.108;2023-04-02T12:42:53;101944.25;;;10.78;58.00
28935;BME280;16044;52.726;-2.108;2023-04-02T12:45:31;101948.94;;;10.95;58.38
28935;BME280;16044;52.726;-2.108;2023-04-02T12:48:01;101949.94;;;11.23;58.84
28935;BME280;16044;52.726;-2.108;2023-04-02T12:50:30;101942.75;;;11.32;56.66
28935;BME280;16044;52.726;-2.108;2023-04-02T12:52:59;101941.06;;;11.31;56.30
28935;BME280;16044;52.726;-2.108;2023-04-02T12:55:26;101944.03;;;11.28;55.84
28935;BME280;16044;52.726;-2.108;2023-04-02T12:57:58;101943.34;;;11.26;56.07
28935;BME280;16044;52.726;-2.108;2023-04-02T13:00:28;101945.34;;;11.24;55.81
28935;BME280;16044;52.726;-2.108;2023-04-02T13:03:14;101939.91;;;11.24;56.16
28935;BME280;16044;52.726;-2.108;2023-04-02T13:05:53;101941.88;;;11.41;55.10
28935;BME280;16044;52.726;-2.108;2023-04-02T13:08:27;101930.44;;;11.47;54.36
28935;BME280;16044;52.726;-2.108;2023-04-02T13:11:07;101927.03;;;11.36;53.13
28935;BME280;16044;52.726;-2.108;2023-04-02T13:13:34;101929.72;;;11.45;53.41
28935;BME280;16044;52.726;-2.108;2023-04-02T13:16:25;101933.16;;;11.47;52.32
28935;BME280;16044;52.726;-2.108;2023-04-02T13:21:43;101919.41;;;11.59;52.70
28935;BME280;16044;52.726;-2.108;2023-04-02T13:24:25;101924.38;;;11.63;52.82
28935;BME280;16044;52.726;-2.108;2023-04-02T13:26:56;101921.53;;;11.65;52.61
28935;BME280;16044;52.726;-2.108;2023-04-02T13:29:28;101922.94;;;11.69;52.39
28935;BME280;16044;52.726;-2.108;2023-04-02T13:32:01;101915.59;;;11.79;53.12
28935;BME280;16044;52.726;-2.108;2023-04-02T13:34:30;101907.69;;;11.86;52.07
28935;BME280;16044;52.726;-2.108;2023-04-02T13:36:58;101913.72;;;11.89;53.07
28935;BME280;16044;52.726;-2.108;2023-04-02T13:39:25;101916.00;;;11.84;50.92
28935;BME280;16044;52.726;-2.108;2023-04-02T13:41:59;101917.03;;;11.74;51.77
28935;BME280;16044;52.726;-2.108;2023-04-02T13:44:28;101909.63;;;11.66;52.15
28935;BME280;16044;52.726;-2.108;2023-04-02T13:46:57;101909.91;;;11.73;52.87
28935;BME280;16044;52.726;-2.108;2023-04-02T13:49:25;101909.78;;;11.74;52.17
28935;BME280;16044;52.726;-2.108;2023-04-02T13:52:00;101906.06;;;11.65;51.97
28935;BME280;16044;52.726;-2.108;2023-04-02T13:54:40;101916.97;;;11.56;52.74
28935;BME280;16044;52.726;-2.108;2023-04-02T13:57:10;101926.00;;;11.46;51.93
28935;BME280;16044;52.726;-2.108;2023-04-02T13:59:37;101915.75;;;11.40;51.99
28935;BME280;16044;52.726;-2.108;2023-04-02T14:02:16;101914.72;;;11.41;51.73
28935;BME280;16044;52.726;-2.108;2023-04-02T14:04:48;101908.72;;;11.47;51.63
28935;BME280;16044;52.726;-2.108;2023-04-02T14:07:33;101916.69;;;11.59;50.58
28935;BME280;16044;52.726;-2.108;2023-04-02T14:10:27;101906.53;;;11.61;50.28
28935;BME280;16044;52.726;-2.108;2023-04-02T14:15:42;101912.41;;;11.56;49.75
28935;BME280;16044;52.726;-2.108;2023-04-02T14:21:34;101906.38;;;11.62;49.88
28935;BME280;16044;52.726;-2.108;2023-04-02T14:24:16;101901.50;;;11.66;49.19
28935;BME280;16044;52.726;-2.108;2023-04-02T14:27:18;101902.50;;;11.65;48.95
28935;BME280;16044;52.726;-2.108;2023-04-02T14:33:10;101912.66;;;11.63;46.76
28935;BME280;16044;52.726;-2.108;2023-04-02T14:35:58;101903.50;;;11.64;48.28
28935;BME280;16044;52.726;-2.108;2023-04-02T14:38:39;101892.63;;;11.64;48.43
28935;BME280;16044;52.726;-2.108;2023-04-02T14:41:17;101895.81;;;11.59;48.38
28935;BME280;16044;52.726;-2.108;2023-04-02T14:43:53;101903.63;;;11.72;48.89
28935;BME280;16044;52.726;-2.108;2023-04-02T14:46:35;101894.88;;;11.78;49.17
28935;BME280;16044;52.726;-2.108;2023-04-02T14:49:25;101892.84;;;11.80;49.28
28935;BME280;16044;52.726;-2.108;2023-04-02T14:52:03;101903.16;;;11.77;49.16
28935;BME280;16044;52.726;-2.108;2023-04-02T14:57:23;101886.81;;;11.86;49.58
28935;BME280;16044;52.726;-2.108;2023-04-02T15:02:53;101893.69;;;11.90;49.36
28935;BME280;16044;52.726;-2.108;2023-04-02T15:05:49;101888.13;;;11.82;49.75
28935;BME280;16044;52.726;-2.108;2023-04-02T15:08:29;101891.84;;;11.81;50.51
28935;BME280;16044;52.726;-2.108;2023-04-02T15:11:33;101893.72;;;11.81;49.86
28935;BME280;16044;52.726;-2.108;2023-04-02T15:14:15;101884.16;;;11.77;50.12
28935;BME280;16044;52.726;-2.108;2023-04-02T15:16:45;101885.31;;;11.74;49.30
28935;BME280;16044;52.726;-2.108;2023-04-02T15:19:14;101884.28;;;11.75;50.13
28935;BME280;16044;52.726;-2.108;2023-04-02T15:24:43;101876.34;;;11.64;49.35
28935;BME280;16044;52.726;-2.108;2023-04-02T15:27:53;101890.34;;;11.69;49.91
28935;BME280;16044;52.726;-2.108;2023-04-02T15:30:44;101890.06;;;11.72;49.97
28935;BME280;16044;52.726;-2.108;2023-04-02T15:33:30;101888.75;;;11.76;50.69
28935;BME280;16044;52.726;-2.108;2023-04-02T15:36:25;101891.47;;;11.76;50.34
28935;BME280;16044;52.726;-2.108;2023-04-02T15:44:30;101891.22;;;11.60;49.56
28935;BME280;16044;52.726;-2.108;2023-04-02T15:53:08;101892.53;;;11.56;50.05
28935;BME280;16044;52.726;-2.108;2023-04-02T15:59:08;101908.13;;;11.54;50.50
28935;BME280;16044;52.726;-2.108;2023-04-02T16:01:59;101909.25;;;11.51;50.63
28935;BME280;16044;52.726;-2.108;2023-04-02T16:04:52;101916.97;;;11.56;50.95
28935;BME280;16044;52.726;-2.108;2023-04-02T16:10:25;101919.84;;;11.54;51.38
28935;BME280;16044;52.726;-2.108;2023-04-02T16:13:25;101920.84;;;11.53;51.16
28935;BME280;16044;52.726;-2.108;2023-04-02T16:19:12;101919.28;;;11.50;50.31
28935;BME280;16044;52.726;-2.108;2023-04-02T16:25:00;101909.84;;;11.45;50.39
28935;BME280;16044;52.726;-2.108;2023-04-02T16:27:39;101912.16;;;11.40;51.03
28935;BME280;16044;52.726;-2.108;2023-04-02T16:39:18;101923.47;;;11.35;51.80
28935;BME280;16044;52.726;-2.108;2023-04-02T16:42:15;101933.63;;;11.33;51.42
28935;BME280;16044;52.726;-2.108;2023-04-02T16:48:04;101945.63;;;11.21;50.50
28935;BME280;16044;52.726;-2.108;2023-04-02T16:51:13;101937.66;;;11.19;50.90